sensor_id;sensor_type;location;lat;lon;timestamp;P1;durP1;ratioP1;P2;durP2;ratioP2
56999;SDS011;42891;50.006;21.964;2022-10-16T00:00:36;15.52;;;12.05;;
56999;SDS011;42891;50.006;21.964;2022-10-16T00:04:37;18.10;;;11.43;;
56999;SDS011;42891;50.006;21.964;2022-10-16T00:08:37;22.63;;;12.07;;
56999;SDS011;42891;50.006;21.964;2022-10-16T00:12:38;18.23;;;13.13;;
56999;SDS011;42891;50.006;21.964;2022-10-16T00:16:38;17.98;;;12.82;;
56999;SDS011;42891;50.006;21.964;2022-10-16T00:20:39;17.90;;;12.60;;
56999;SDS011;42891;50.006;21.964;2022-10-16T00:24:39;17.35;;;12.20;;
56999;SDS011;42891;50.006;21.964;2022-10-16T00:28:39;19.27;;;13.60;;
56999;SDS011;42891;50.006;21.964;2022-10-16T00:32:40;18.93;;;14.30;;
56999;SDS011;42891;50.006;21.964;2022-10-16T00:36:40;14.80;;;11.55;;
56999;SDS011;42891;50.006;21.964;2022-10-16T00:40:40;18.60;;;12.23;;
56999;SDS011;42891;50.006;21.964;2022-10-16T00:48:48;15.23;;;12.32;;
56999;SDS011;42891;50.006;21.964;2022-10-16T00:52:57;17.67;;;12.30;;
56999;SDS011;42891;50.006;21.964;2022-10-16T00:57:02;15.70;;;11.20;;
56999;SDS011;42891;50.006;21.964;2022-10-16T01:01:05;16.38;;;11.25;;
56999;SDS011;42891;50.006;21.964;2022-10-16T01:05:05;17.77;;;11.13;;
56999;SDS011;42891;50.006;21.964;2022-10-16T01:13:27;17.50;;;12.07;;
56999;SDS011;42891;50.006;21.964;2022-10-16T01:17:39;16.58;;;11.68;;
56999;SDS011;42891;50.006;21.964;2022-10-16T01:21:45;18.17;;;12.25;;
56999;SDS011;42891;50.006;21.964;2022-10-16T01:34:13;20.10;;;12.05;;
56999;SDS011;42891;50.006;21.964;2022-10-16T01:38:25;20.92;;;12.43;;
56999;SDS011;42891;50.006;21.964;2022-10-16T01:42:34;17.35;;;10.98;;
56999;SDS011;42891;50.006;21.964;2022-10-16T01:46:38;16.65;;;11.85;;
56999;SDS011;42891;50.006;21.964;2022-10-16T01:50:41;15.40;;;11.15;;
56999;SDS011;42891;50.006;21.964;2022-10-16T01:54:45;19.60;;;12.52;;
56999;SDS011;42891;50.006;21.964;2022-10-16T01:59:11;19.13;;;13.43;;
56999;SDS011;42891;50.006;21.964;2022-10-16T02:03:17;18.13;;;12.13;;
56999;SDS011;42891;50.006;21.964;2022-10-16T02:07:19;15.00;;;11.32;;
56999;SDS011;42891;50.006;21.964;2022-10-16T02:11:20;18.15;;;11.82;;
56999;SDS011;42891;50.006;21.964;2022-10-16T02:15:20;14.50;;;11.20;;
56999;SDS011;42891;50.006;21.964;2022-10-16T02:19:20;19.70;;;11.90;;
56999;SDS011;42891;50.006;21.964;2022-10-16T02:23:24;17.02;;;11.35;;
56999;SDS011;42891;50.006;21.964;2022-10-16T02:27:44;16.98;;;12.25;;
56999;SDS011;42891;50.006;21.964;2022-10-16T02:31:47;17.42;;;11.30;;
56999;SDS011;42891;50.006;21.964;2022-10-16T02:35:53;14.68;;;10.35;;
56999;SDS011;42891;50.006;21.964;2022-10-16T02:39:55;15.88;;;10.38;;
56999;SDS011;42891;50.006;21.964;2022-10-16T02:43:57;15.77;;;10.90;;
56999;SDS011;42891;50.006;21.964;2022-10-16T02:47:57;16.83;;;10.37;;
56999;SDS011;42891;50.006;21.964;2022-10-16T02:51:58;17.67;;;10.20;;
56999;SDS011;42891;50.006;21.964;2022-10-16T02:55:58;16.55;;;10.88;;
56999;SDS011;42891;50.006;21.964;2022-10-16T02:59:58;13.40;;;10.50;;
56999;SDS011;42891;50.006;21.964;2022-10-16T03:03:58;15.60;;;10.15;;
56999;SDS011;42891;50.006;21.964;2022-10-16T03:07:59;20.30;;;10.90;;
56999;SDS011;42891;50.006;21.964;2022-10-16T03:12:00;14.02;;;9.95;;
56999;SDS011;42891;50.006;21.964;2022-10-16T03:16:01;14.18;;;10.20;;
56999;SDS011;42891;50.006;21.964;2022-10-16T03:20:01;13.07;;;10.37;;
56999;SDS011;42891;50.006;21.964;2022-10-16T03:24:02;15.02;;;10.27;;
56999;SDS011;42891;50.006;21.964;2022-10-16T03:28:02;15.32;;;10.77;;
56999;SDS011;42891;50.006;21.964;2022-10-16T03:32:03;16.10;;;10.35;;
56999;SDS011;42891;50.006;21.964;2022-10-16T03:36:03;16.35;;;10.02;;
56999;SDS011;42891;50.006;21.964;2022-10-16T03:40:04;15.00;;;9.52;;
56999;SDS011;42891;50.006;21.964;2022-10-16T03:44:05;18.38;;;10.73;;
56999;SDS011;42891;50.006;21.964;2022-10-16T03:48:05;17.08;;;10.38;;
56999;SDS011;42891;50.006;21.964;2022-10-16T03:52:06;16.15;;;10.45;;
56999;SDS011;42891;50.006;21.964;2022-10-16T03:56:06;16.98;;;10.50;;
56999;SDS011;42891;50.006;21.964;2022-10-16T04:00:07;15.48;;;10.23;;
56999;SDS011;42891;50.006;21.964;2022-10-16T04:04:07;14.25;;;9.80;;
56999;SDS011;42891;50.006;21.964;2022-10-16T04:08:08;16.17;;;9.82;;
56999;SDS011;42891;50.006;21.964;2022-10-16T04:12:08;12.80;;;9.70;;
56999;SDS011;42891;50.006;21.964;2022-10-16T04:16:09;14.97;;;10.10;;
56999;SDS011;42891;50.006;21.964;2022-10-16T04:20:09;15.57;;;10.00;;
56999;SDS011;42891;50.006;21.964;2022-10-16T04:24:09;14.70;;;9.55;;
56999;SDS011;42891;50.006;21.964;2022-10-16T04:28:11;14.60;;;10.32;;
56999;SDS011;42891;50.006;21.964;2022-10-16T04:32:11;14.77;;;10.13;;
56999;SDS011;42891;50.006;21.964;2022-10-16T04:36:12;12.33;;;9.20;;
56999;SDS011;42891;50.006;21.964;2022-10-16T04:40:13;13.68;;;9.20;;
56999;SDS011;42891;50.006;21.964;2022-10-16T04:44:13;15.52;;;10.30;;
56999;SDS011;42891;50.006;21.964;2022-10-16T04:48:14;13.30;;;9.48;;
56999;SDS011;42891;50.006;21.964;2022-10-16T04:52:14;17.42;;;9.68;;
56999;SDS011;42891;50.006;21.964;2022-10-16T04:56:15;14.90;;;10.13;;
56999;SDS011;42891;50.006;21.964;2022-10-16T05:00:15;16.52;;;10.25;;
56999;SDS011;42891;50.006;21.964;2022-10-16T05:04:15;17.52;;;10.35;;
56999;SDS011;42891;50.006;21.964;2022-10-16T05:08:16;14.25;;;10.05;;
56999;SDS011;42891;50.006;21.964;2022-10-16T05:12:16;16.42;;;10.10;;
56999;SDS011;42891;50.006;21.964;2022-10-16T05:16:17;13.57;;;9.60;;
56999;SDS011;42891;50.006;21.964;2022-10-16T05:20:17;16.70;;;10.02;;
56999;SDS011;42891;50.006;21.964;2022-10-16T05:24:17;16.03;;;10.07;;
56999;SDS011;42891;50.006;21.964;2022-10-16T05:28:18;12.90;;;9.67;;
56999;SDS011;42891;50.006;21.964;2022-10-16T05:32:18;13.67;;;9.40;;
56999;SDS011;42891;50.006;21.964;2022-10-16T05:36:18;13.95;;;9.52;;
56999;SDS011;42891;50.006;21.964;2022-10-16T05:40:19;16.38;;;9.52;;
56999;SDS011;42891;50.006;21.964;2022-10-16T05:44:19;14.00;;;9.00;;
56999;SDS011;42891;50.006;21.964;2022-10-16T05:48:20;13.63;;;9.63;;
56999;SDS011;42891;50.006;21.964;2022-10-16T05:52:20;13.87;;;10.00;;
56999;SDS011;42891;50.006;21.964;2022-10-16T05:56:21;19.05;;;13.18;;
56999;SDS011;42891;50.006;21.964;2022-10-16T06:00:21;20.88;;;12.73;;
56999;SDS011;42891;50.006;21.964;2022-10-16T06:04:21;21.15;;;11.40;;
56999;SDS011;42891;50.006;21.964;2022-10-16T06:08:22;23.42;;;12.65;;
56999;SDS011;42891;50.006;21.964;2022-10-16T06:12:22;26.77;;;14.20;;
56999;SDS011;42891;50.006;21.964;2022-10-16T06:16:24;29.02;;;14.70;;
56999;SDS011;42891;50.006;21.964;2022-10-16T06:20:25;23.20;;;13.07;;
56999;SDS011;42891;50.006;21.964;2022-10-16T06:24:26;13.77;;;9.77;;
56999;SDS011;42891;50.006;21.964;2022-10-16T06:28:26;14.97;;;8.40;;
56999;SDS011;42891;50.006;21.964;2022-10-16T06:32:27;12.18;;;9.20;;
56999;SDS011;42891;50.006;21.964;2022-10-16T06:36:27;12.20;;;8.85;;
56999;SDS011;42891;50.006;21.964;2022-10-16T06:40:28;11.68;;;8.43;;
56999;SDS011;42891;50.006;21.964;2022-10-16T06:44:28;13.73;;;10.23;;
56999;SDS011;42891;50.006;21.964;2022-10-16T06:48:29;13.90;;;8.50;;
56999;SDS011;42891;50.006;21.964;2022-10-16T06:52:29;14.85;;;8.38;;
56999;SDS011;42891;50.006;21.964;2022-10-16T06:56:30;14.15;;;8.80;;
56999;SDS011;42891;50.006;21.964;2022-10-16T07:00:31;12.80;;;9.02;;
56999;SDS011;42891;50.006;21.964;2022-10-16T07:04:31;11.57;;;8.50;;
56999;SDS011;42891;50.006;21.964;2022-10-16T07:08:32;15.83;;;8.67;;
56999;SDS011;42891;50.006;21.964;2022-10-16T07:12:32;14.48;;;8.75;;
56999;SDS011;42891;50.006;21.964;2022-10-16T07:16:33;10.53;;;8.47;;
56999;SDS011;42891;50.006;21.964;2022-10-16T07:20:33;10.70;;;8.13;;
56999;SDS011;42891;50.006;21.964;2022-10-16T07:24:33;15.43;;;8.43;;
56999;SDS011;42891;50.006;21.964;2022-10-16T07:28:34;12.25;;;8.35;;
56999;SDS011;42891;50.006;21.964;2022-10-16T07:32:34;14.77;;;8.48;;
56999;SDS011;42891;50.006;21.964;2022-10-16T07:36:37;12.50;;;8.63;;
56999;SDS011;42891;50.006;21.964;2022-10-16T07:40:38;12.27;;;8.10;;
56999;SDS011;42891;50.006;21.964;2022-10-16T07:44:38;13.53;;;8.73;;
56999;SDS011;42891;50.006;21.964;2022-10-16T07:48:39;12.02;;;8.50;;
56999;SDS011;42891;50.006;21.964;2022-10-16T07:56:46;15.40;;;7.90;;
56999;SDS011;42891;50.006;21.964;2022-10-16T08:00:46;13.20;;;7.43;;
56999;SDS011;42891;50.006;21.964;2022-10-16T08:04:46;15.40;;;7.53;;
56999;SDS011;42891;50.006;21.964;2022-10-16T08:08:47;9.70;;;7.47;;
56999;SDS011;42891;50.006;21.964;2022-10-16T08:12:47;17.13;;;8.38;;
56999;SDS011;42891;50.006;21.964;2022-10-16T08:16:48;11.53;;;7.67;;
56999;SDS011;42891;50.006;21.964;2022-10-16T08:20:54;14.53;;;7.93;;
56999;SDS011;42891;50.006;21.964;2022-10-16T08:24:56;11.30;;;7.22;;
56999;SDS011;42891;50.006;21.964;2022-10-16T08:28:56;12.87;;;7.57;;
56999;SDS011;42891;50.006;21.964;2022-10-16T08:32:57;12.02;;;7.63;;
56999;SDS011;42891;50.006;21.964;2022-10-16T08:36:58;15.70;;;8.38;;
56999;SDS011;42891;50.006;21.964;2022-10-16T08:49:59;12.63;;;7.20;;
56999;SDS011;42891;50.006;21.964;2022-10-16T08:54:53;11.57;;;7.13;;
56999;SDS011;42891;50.006;21.964;2022-10-16T08:58:32;9.02;;;6.82;;
56999;SDS011;42891;50.006;21.964;2022-10-16T09:02:35;12.75;;;6.75;;
56999;SDS011;42891;50.006;21.964;2022-10-16T09:11:03;9.75;;;7.75;;
56999;SDS011;42891;50.006;21.964;2022-10-16T09:19:36;9.23;;;7.30;;
56999;SDS011;42891;50.006;21.964;2022-10-16T09:23:41;10.07;;;7.05;;
56999;SDS011;42891;50.006;21.964;2022-10-16T09:27:45;8.68;;;6.78;;
56999;SDS011;42891;50.006;21.964;2022-10-16T09:35:54;12.88;;;6.20;;
56999;SDS011;42891;50.006;21.964;2022-10-16T09:39:58;10.13;;;6.65;;
56999;SDS011;42891;50.006;21.964;2022-10-16T09:43:59;11.83;;;6.67;;
56999;SDS011;42891;50.006;21.964;2022-10-16T09:48:09;11.63;;;7.20;;
56999;SDS011;42891;50.006;21.964;2022-10-16T09:52:12;11.85;;;6.68;;
56999;SDS011;42891;50.006;21.964;2022-10-16T10:00:53;8.30;;;6.45;;
56999;SDS011;42891;50.006;21.964;2022-10-16T10:04:54;10.05;;;6.40;;
56999;SDS011;42891;50.006;21.964;2022-10-16T10:08:56;12.13;;;6.68;;
56999;SDS011;42891;50.006;21.964;2022-10-16T10:12:59;12.55;;;6.70;;
56999;SDS011;42891;50.006;21.964;2022-10-16T10:17:14;9.65;;;6.32;;
56999;SDS011;42891;50.006;21.964;2022-10-16T10:21:22;11.48;;;6.43;;
56999;SDS011;42891;50.006;21.964;2022-10-16T10:29:57;9.60;;;6.82;;
56999;SDS011;42891;50.006;21.964;2022-10-16T10:34:16;11.40;;;6.90;;
56999;SDS011;42891;50.006;21.964;2022-10-16T10:38:27;11.05;;;7.03;;
56999;SDS011;42891;50.006;21.964;2022-10-16T10:51:04;10.82;;;6.57;;
56999;SDS011;42891;50.006;21.964;2022-10-16T11:04:42;9.23;;;6.43;;
56999;SDS011;42891;50.006;21.964;2022-10-16T11:09:10;10.70;;;7.10;;
56999;SDS011;42891;50.006;21.964;2022-10-16T11:17:35;12.75;;;6.95;;
56999;SDS011;42891;50.006;21.964;2022-10-16T11:21:48;10.98;;;6.50;;
56999;SDS011;42891;50.006;21.964;2022-10-16T11:26:09;14.93;;;8.15;;
56999;SDS011;42891;50.006;21.964;2022-10-16T11:30:20;16.60;;;8.65;;
56999;SDS011;42891;50.006;21.964;2022-10-16T11:39:04;9.57;;;5.70;;
56999;SDS011;42891;50.006;21.964;2022-10-16T11:43:32;7.88;;;5.85;;
56999;SDS011;42891;50.006;21.964;2022-10-16T11:47:45;9.13;;;5.38;;
56999;SDS011;42891;50.006;21.964;2022-10-16T11:52:07;10.18;;;6.40;;
56999;SDS011;42891;50.006;21.964;2022-10-16T11:56:24;11.05;;;6.13;;
56999;SDS011;42891;50.006;21.964;2022-10-16T12:00:27;8.27;;;5.70;;
56999;SDS011;42891;50.006;21.964;2022-10-16T12:04:39;7.82;;;5.00;;
56999;SDS011;42891;50.006;21.964;2022-10-16T12:08:51;9.73;;;5.22;;
56999;SDS011;42891;50.006;21.964;2022-10-16T12:12:52;8.18;;;5.18;;
56999;SDS011;42891;50.006;21.964;2022-10-16T12:16:57;7.88;;;5.57;;
56999;SDS011;42891;50.006;21.964;2022-10-16T12:21:00;6.88;;;5.07;;
56999;SDS011;42891;50.006;21.964;2022-10-16T12:25:17;11.02;;;5.45;;
56999;SDS011;42891;50.006;21.964;2022-10-16T12:33:41;9.40;;;5.00;;
56999;SDS011;42891;50.006;21.964;2022-10-16T12:37:54;7.82;;;5.22;;
56999;SDS011;42891;50.006;21.964;2022-10-16T12:42:05;7.65;;;5.30;;
56999;SDS011;42891;50.006;21.964;2022-10-16T12:46:24;6.47;;;4.65;;
56999;SDS011;42891;50.006;21.964;2022-10-16T12:50:36;7.82;;;5.38;;
56999;SDS011;42891;50.006;21.964;2022-10-16T12:54:38;6.00;;;5.00;;
56999;SDS011;42891;50.006;21.964;2022-10-16T13:24:21;9.40;;;4.68;;
56999;SDS011;42891;50.006;21.964;2022-10-16T13:28:28;7.80;;;3.92;;
56999;SDS011;42891;50.006;21.964;2022-10-16T13:32:32;7.72;;;4.30;;
56999;SDS011;42891;50.006;21.964;2022-10-16T13:36:42;8.05;;;4.63;;
56999;SDS011;42891;50.006;21.964;2022-10-16T13:40:54;10.20;;;4.47;;
56999;SDS011;42891;50.006;21.964;2022-10-16T13:45:02;9.10;;;4.00;;
56999;SDS011;42891;50.006;21.964;2022-10-16T13:49:11;7.38;;;4.35;;
56999;SDS011;42891;50.006;21.964;2022-10-16T13:53:13;9.50;;;4.55;;
56999;SDS011;42891;50.006;21.964;2022-10-16T13:57:15;6.90;;;4.20;;
56999;SDS011;42891;50.006;21.964;2022-10-16T14:01:26;6.15;;;4.63;;
56999;SDS011;42891;50.006;21.964;2022-10-16T14:05:28;6.60;;;4.25;;
56999;SDS011;42891;50.006;21.964;2022-10-16T14:09:30;6.50;;;4.50;;
56999;SDS011;42891;50.006;21.964;2022-10-16T14:13:32;7.55;;;4.38;;
56999;SDS011;42891;50.006;21.964;2022-10-16T14:17:38;9.30;;;4.90;;
56999;SDS011;42891;50.006;21.964;2022-10-16T14:21:44;6.05;;;4.50;;
56999;SDS011;42891;50.006;21.964;2022-10-16T14:25:44;9.20;;;5.22;;
56999;SDS011;42891;50.006;21.964;2022-10-16T14:29:45;9.20;;;5.18;;
56999;SDS011;42891;50.006;21.964;2022-10-16T14:33:45;11.07;;;5.77;;
56999;SDS011;42891;50.006;21.964;2022-10-16T14:37:46;11.50;;;5.45;;
56999;SDS011;42891;50.006;21.964;2022-10-16T14:41:50;7.93;;;4.97;;
56999;SDS011;42891;50.006;21.964;2022-10-16T14:45:52;8.70;;;5.80;;
56999;SDS011;42891;50.006;21.964;2022-10-16T14:49:55;8.05;;;5.95;;
56999;SDS011;42891;50.006;21.964;2022-10-16T14:53:58;7.75;;;4.88;;
56999;SDS011;42891;50.006;21.964;2022-10-16T14:57:58;10.20;;;5.00;;
56999;SDS011;42891;50.006;21.964;2022-10-16T15:01:59;11.32;;;5.53;;
56999;SDS011;42891;50.006;21.964;2022-10-16T15:06:12;6.55;;;5.35;;
56999;SDS011;42891;50.006;21.964;2022-10-16T15:10:15;8.52;;;5.32;;
56999;SDS011;42891;50.006;21.964;2022-10-16T15:14:16;10.45;;;5.40;;
56999;SDS011;42891;50.006;21.964;2022-10-16T15:18:16;35.63;;;23.40;;
56999;SDS011;42891;50.006;21.964;2022-10-16T15:22:20;9.70;;;6.30;;
56999;SDS011;42891;50.006;21.964;2022-10-16T15:26:24;11.60;;;8.77;;
56999;SDS011;42891;50.006;21.964;2022-10-16T15:30:25;11.40;;;8.52;;
56999;SDS011;42891;50.006;21.964;2022-10-16T15:34:26;10.35;;;6.30;;
56999;SDS011;42891;50.006;21.964;2022-10-16T15:38:27;8.57;;;5.83;;
56999;SDS011;42891;50.006;21.964;2022-10-16T15:42:28;11.52;;;5.30;;
56999;SDS011;42891;50.006;21.964;2022-10-16T15:46:28;8.17;;;5.50;;
56999;SDS011;42891;50.006;21.964;2022-10-16T15:50:31;7.80;;;6.13;;
56999;SDS011;42891;50.006;21.964;2022-10-16T15:54:32;10.13;;;6.90;;
56999;SDS011;42891;50.006;21.964;2022-10-16T15:58:32;18.90;;;12.43;;
56999;SDS011;42891;50.006;21.964;2022-10-16T16:02:32;14.15;;;9.60;;
56999;SDS011;42891;50.006;21.964;2022-10-16T16:06:32;13.03;;;7.00;;
56999;SDS011;42891;50.006;21.964;2022-10-16T16:10:33;12.93;;;6.88;;
56999;SDS011;42891;50.006;21.964;2022-10-16T16:14:33;10.83;;;7.60;;
56999;SDS011;42891;50.006;21.964;2022-10-16T16:18:33;9.80;;;6.50;;
56999;SDS011;42891;50.006;21.964;2022-10-16T16:22:34;9.63;;;6.57;;
56999;SDS011;42891;50.006;21.964;2022-10-16T16:26:34;12.53;;;8.00;;
56999;SDS011;42891;50.006;21.964;2022-10-16T16:30:37;12.60;;;7.85;;
56999;SDS011;42891;50.006;21.964;2022-10-16T16:34:37;11.97;;;8.13;;
56999;SDS011;42891;50.006;21.964;2022-10-16T16:38:37;12.40;;;7.23;;
56999;SDS011;42891;50.006;21.964;2022-10-16T16:42:38;12.37;;;7.97;;
56999;SDS011;42891;50.006;21.964;2022-10-16T16:46:38;17.30;;;7.07;;
56999;SDS011;42891;50.006;21.964;2022-10-16T16:50:42;8.35;;;6.25;;
56999;SDS011;42891;50.006;21.964;2022-10-16T16:54:43;7.80;;;6.28;;
56999;SDS011;42891;50.006;21.964;2022-10-16T16:58:45;11.30;;;7.22;;
56999;SDS011;42891;50.006;21.964;2022-10-16T17:02:49;11.98;;;7.57;;
56999;SDS011;42891;50.006;21.964;2022-10-16T17:06:51;12.48;;;7.50;;
56999;SDS011;42891;50.006;21.964;2022-10-16T17:10:53;10.65;;;6.80;;
56999;SDS011;42891;50.006;21.964;2022-10-16T17:14:55;11.13;;;7.07;;
56999;SDS011;42891;50.006;21.964;2022-10-16T17:18:55;9.27;;;6.73;;
56999;SDS011;42891;50.006;21.964;2022-10-16T17:22:55;10.13;;;7.00;;
56999;SDS011;42891;50.006;21.964;2022-10-16T17:26:56;7.88;;;6.57;;
56999;SDS011;42891;50.006;21.964;2022-10-16T17:31:05;9.52;;;6.53;;
56999;SDS011;42891;50.006;21.964;2022-10-16T17:35:07;12.15;;;7.05;;
56999;SDS011;42891;50.006;21.964;2022-10-16T17:39:07;11.38;;;6.78;;
56999;SDS011;42891;50.006;21.964;2022-10-16T17:43:10;12.73;;;8.85;;
56999;SDS011;42891;50.006;21.964;2022-10-16T17:47:10;12.67;;;8.03;;
56999;SDS011;42891;50.006;21.964;2022-10-16T17:51:16;12.93;;;8.13;;
56999;SDS011;42891;50.006;21.964;2022-10-16T17:55:18;14.77;;;8.77;;
56999;SDS011;42891;50.006;21.964;2022-10-16T17:59:19;14.00;;;8.48;;
56999;SDS011;42891;50.006;21.964;2022-10-16T18:03:21;15.07;;;7.93;;
56999;SDS011;42891;50.006;21.964;2022-10-16T18:07:22;12.27;;;7.70;;
56999;SDS011;42891;50.006;21.964;2022-10-16T18:11:23;13.32;;;7.82;;
56999;SDS011;42891;50.006;21.964;2022-10-16T18:15:24;12.50;;;8.00;;
56999;SDS011;42891;50.006;21.964;2022-10-16T18:19:24;11.03;;;8.10;;
56999;SDS011;42891;50.006;21.964;2022-10-16T18:23:26;12.65;;;8.85;;
56999;SDS011;42891;50.006;21.964;2022-10-16T18:27:27;12.40;;;8.40;;
56999;SDS011;42891;50.006;21.964;2022-10-16T18:31:27;13.57;;;7.73;;
56999;SDS011;42891;50.006;21.964;2022-10-16T18:35:28;10.48;;;7.43;;
56999;SDS011;42891;50.006;21.964;2022-10-16T18:39:28;11.27;;;7.80;;
56999;SDS011;42891;50.006;21.964;2022-10-16T18:43:28;12.13;;;8.20;;
56999;SDS011;42891;50.006;21.964;2022-10-16T18:47:29;13.00;;;7.07;;
56999;SDS011;42891;50.006;21.964;2022-10-16T18:51:33;12.60;;;7.37;;
56999;SDS011;42891;50.006;21.964;2022-10-16T18:55:39;10.20;;;6.90;;
56999;SDS011;42891;50.006;21.964;2022-10-16T18:59:39;10.73;;;6.97;;
56999;SDS011;42891;50.006;21.964;2022-10-16T19:03:40;12.20;;;6.60;;
56999;SDS011;42891;50.006;21.964;2022-10-16T19:07:43;9.30;;;6.57;;
56999;SDS011;42891;50.006;21.964;2022-10-16T19:11:44;11.52;;;7.07;;
56999;SDS011;42891;50.006;21.964;2022-10-16T19:15:45;12.25;;;7.53;;
56999;SDS011;42891;50.006;21.964;2022-10-16T19:19:45;9.27;;;6.53;;
56999;SDS011;42891;50.006;21.964;2022-10-16T19:23:48;11.93;;;7.23;;
56999;SDS011;42891;50.006;21.964;2022-10-16T19:27:51;10.10;;;6.60;;
56999;SDS011;42891;50.006;21.964;2022-10-16T19:31:51;11.05;;;7.13;;
56999;SDS011;42891;50.006;21.964;2022-10-16T19:35:51;10.20;;;6.20;;
56999;SDS011;42891;50.006;21.964;2022-10-16T19:39:52;13.23;;;7.90;;
56999;SDS011;42891;50.006;21.964;2022-10-16T19:43:52;12.98;;;8.27;;
56999;SDS011;42891;50.006;21.964;2022-10-16T19:47:53;11.52;;;7.45;;
56999;SDS011;42891;50.006;21.964;2022-10-16T19:51:53;16.38;;;7.88;;
56999;SDS011;42891;50.006;21.964;2022-10-16T19:55:54;11.47;;;7.93;;
56999;SDS011;42891;50.006;21.964;2022-10-16T19:59:55;12.10;;;8.35;;
56999;SDS011;42891;50.006;21.964;2022-10-16T20:03:55;14.38;;;8.57;;
56999;SDS011;42891;50.006;21.964;2022-10-16T20:07:56;13.80;;;7.90;;
56999;SDS011;42891;50.006;21.964;2022-10-16T20:11:56;22.87;;;9.30;;
56999;SDS011;42891;50.006;21.964;2022-10-16T20:15:56;12.23;;;8.13;;
56999;SDS011;42891;50.006;21.964;2022-10-16T20:19:57;12.75;;;7.97;;
56999;SDS011;42891;50.006;21.964;2022-10-16T20:24:00;11.38;;;7.38;;
56999;SDS011;42891;50.006;21.964;2022-10-16T20:28:04;10.93;;;6.43;;
56999;SDS011;42891;50.006;21.964;2022-10-16T20:32:05;11.63;;;6.30;;
56999;SDS011;42891;50.006;21.964;2022-10-16T20:36:08;13.27;;;6.30;;
56999;SDS011;42891;50.006;21.964;2022-10-16T20:40:10;10.68;;;6.90;;
56999;SDS011;42891;50.006;21.964;2022-10-16T20:44:11;11.82;;;7.57;;
56999;SDS011;42891;50.006;21.964;2022-10-16T20:48:12;9.20;;;6.20;;
56999;SDS011;42891;50.006;21.964;2022-10-16T20:52:12;9.10;;;6.70;;
56999;SDS011;42891;50.006;21.964;2022-10-16T20:56:13;9.10;;;5.83;;
56999;SDS011;42891;50.006;21.964;2022-10-16T21:00:17;9.52;;;6.40;;
56999;SDS011;42891;50.006;21.964;2022-10-16T21:04:18;10.40;;;6.82;;
56999;SDS011;42891;50.006;21.964;2022-10-16T21:08:18;14.20;;;6.97;;
56999;SDS011;42891;50.006;21.964;2022-10-16T21:12:18;10.67;;;6.63;;
56999;SDS011;42891;50.006;21.964;2022-10-16T21:16:18;11.48;;;6.82;;
56999;SDS011;42891;50.006;21.964;2022-10-16T21:20:19;12.27;;;7.10;;
56999;SDS011;42891;50.006;21.964;2022-10-16T21:24:19;11.23;;;6.50;;
56999;SDS011;42891;50.006;21.964;2022-10-16T21:28:20;9.38;;;6.15;;
56999;SDS011;42891;50.006;21.964;2022-10-16T21:32:20;9.30;;;6.65;;
56999;SDS011;42891;50.006;21.964;2022-10-16T21:36:24;12.02;;;6.63;;
56999;SDS011;42891;50.006;21.964;2022-10-16T21:40:30;12.98;;;6.82;;
56999;SDS011;42891;50.006;21.964;2022-10-16T21:44:31;8.50;;;6.25;;
56999;SDS011;42891;50.006;21.964;2022-10-16T21:48:31;9.83;;;6.20;;
56999;SDS011;42891;50.006;21.964;2022-10-16T21:52:32;10.13;;;6.73;;
56999;SDS011;42891;50.006;21.964;2022-10-16T21:56:32;8.13;;;6.00;;
56999;SDS011;42891;50.006;21.964;2022-10-16T22:00:33;7.28;;;6.32;;
56999;SDS011;42891;50.006;21.964;2022-10-16T22:04:33;9.63;;;6.70;;
56999;SDS011;42891;50.006;21.964;2022-10-16T22:08:34;11.18;;;6.72;;
56999;SDS011;42891;50.006;21.964;2022-10-16T22:12:36;9.93;;;6.53;;
56999;SDS011;42891;50.006;21.964;2022-10-16T22:16:38;11.23;;;6.78;;
56999;SDS011;42891;50.006;21.964;2022-10-16T22:20:44;9.88;;;6.68;;
56999;SDS011;42891;50.006;21.964;2022-10-16T22:24:45;12.63;;;6.95;;
56999;SDS011;42891;50.006;21.964;2022-10-16T22:28:46;10.30;;;6.57;;
56999;SDS011;42891;50.006;21.964;2022-10-16T22:32:46;8.38;;;5.80;;
56999;SDS011;42891;50.006;21.964;2022-10-16T22:36:47;12.38;;;6.40;;
56999;SDS011;42891;50.006;21.964;2022-10-16T22:40:48;12.52;;;6.40;;
56999;SDS011;42891;50.006;21.964;2022-10-16T22:44:49;10.87;;;6.40;;
56999;SDS011;42891;50.006;21.964;2022-10-16T22:48:49;9.70;;;6.40;;
56999;SDS011;42891;50.006;21.964;2022-10-16T22:52:49;10.93;;;7.07;;
56999;SDS011;42891;50.006;21.964;2022-10-16T22:56:50;8.88;;;6.47;;
56999;SDS011;42891;50.006;21.964;2022-10-16T23:00:50;9.80;;;6.53;;
56999;SDS011;42891;50.006;21.964;2022-10-16T23:04:51;9.80;;;7.20;;
56999;SDS011;42891;50.006;21.964;2022-10-16T23:08:52;13.13;;;7.97;;
56999;SDS011;42891;50.006;21.964;2022-10-16T23:12:53;10.38;;;7.65;;
56999;SDS011;42891;50.006;21.964;2022-10-16T23:16:53;11.33;;;8.00;;
56999;SDS011;42891;50.006;21.964;2022-10-16T23:20:53;8.83;;;7.40;;
56999;SDS011;42891;50.006;21.964;2022-10-16T23:24:54;9.47;;;6.97;;
56999;SDS011;42891;50.006;21.964;2022-10-16T23:28:54;8.95;;;6.75;;
56999;SDS011;42891;50.006;21.964;2022-10-16T23:32:56;13.70;;;7.32;;
56999;SDS011;42891;50.006;21.964;2022-10-16T23:36:56;10.32;;;7.10;;
56999;SDS011;42891;50.006;21.964;2022-10-16T23:40:57;13.17;;;7.10;;
56999;SDS011;42891;50.006;21.964;2022-10-16T23:44:57;10.43;;;7.90;;
56999;SDS011;42891;50.006;21.964;2022-10-16T23:48:57;8.50;;;6.87;;
56999;SDS011;42891;50.006;21.964;2022-10-16T23:52:57;9.02;;;6.55;;
56999;SDS011;42891;50.006;21.964;2022-10-16T23:56:58;9.70;;;5.83;;
